sensor_id;sensor_type;location;lat;lon;timestamp;temperature;humidity
12911;DHT22;6523;49.758;6.120;2022-12-18T00:01:34;-10.30;99.90
12911;DHT22;6523;49.758;6.120;2022-12-18T00:04:01;-10.40;99.90
12911;DHT22;6523;49.758;6.120;2022-12-18T00:06:28;-10.60;99.90
12911;DHT22;6523;49.758;6.120;2022-12-18T00:08:56;-10.70;99.90
12911;DHT22;6523;49.758;6.120;2022-12-18T00:11:24;-10.60;99.90
12911;DHT22;6523;49.758;6.120;2022-12-18T00:13:50;-10.50;99.90
12911;DHT22;6523;49.758;6.120;2022-12-18T00:16:19;-10.50;99.90
12911;DHT22;6523;49.758;6.120;2022-12-18T00:18:46;-10.40;99.90
12911;DHT22;6523;49.758;6.120;2022-12-18T00:21:12;-10.50;99.90
12911;DHT22;6523;49.758;6.120;2022-12-18T00:23:40;-10.70;99.90
12911;DHT22;6523;49.758;6.120;2022-12-18T00:26:10;-10.60;99.90
12911;DHT22;6523;49.758;6.120;2022-12-18T00:28:36;-10.60;99.90
12911;DHT22;6523;49.758;6.120;2022-12-18T00:31:07;-10.70;99.90
12911;DHT22;6523;49.758;6.120;2022-12-18T00:33:33;-10.60;99.90
12911;DHT22;6523;49.758;6.120;2022-12-18T00:36:05;-10.60;99.90
12911;DHT22;6523;49.758;6.120;2022-12-18T00:38:32;-10.80;99.90
12911;DHT22;6523;49.758;6.120;2022-12-18T00:40:57;-10.70;99.90
12911;DHT22;6523;49.758;6.120;2022-12-18T00:43:23;-10.60;99.90
12911;DHT22;6523;49.758;6.120;2022-12-18T00:45:49;-10.60;99.90
12911;DHT22;6523;49.758;6.120;2022-12-18T00:48:15;-10.70;99.90
12911;DHT22;6523;49.758;6.120;2022-12-18T00:50:40;-10.60;99.90
12911;DHT22;6523;49.758;6.120;2022-12-18T00:53:06;-10.60;99.90
12911;DHT22;6523;49.758;6.120;2022-12-18T00:55:39;-10.60;99.90
12911;DHT22;6523;49.758;6.120;2022-12-18T00:58:06;-10.60;99.90
12911;DHT22;6523;49.758;6.120;2022-12-18T01:00:32;-10.50;99.90
12911;DHT22;6523;49.758;6.120;2022-12-18T01:02:58;-10.80;99.90
12911;DHT22;6523;49.758;6.120;2022-12-18T01:05:23;-10.80;99.90
12911;DHT22;6523;49.758;6.120;2022-12-18T01:07:49;-10.80;99.90
12911;DHT22;6523;49.758;6.120;2022-12-18T01:10:15;-10.80;99.90
12911;DHT22;6523;49.758;6.120;2022-12-18T01:12:41;-10.70;99.90
12911;DHT22;6523;49.758;6.120;2022-12-18T01:15:07;-10.80;99.90
12911;DHT22;6523;49.758;6.120;2022-12-18T01:17:34;-10.80;99.90
12911;DHT22;6523;49.758;6.120;2022-12-18T01:20:00;-10.80;99.90
12911;DHT22;6523;49.758;6.120;2022-12-18T01:22:25;-11.00;99.90
12911;DHT22;6523;49.758;6.120;2022-12-18T01:24:51;-10.80;99.90
12911;DHT22;6523;49.758;6.120;2022-12-18T01:27:17;-10.80;99.90
12911;DHT22;6523;49.758;6.120;2022-12-18T01:29:42;-10.80;99.90
12911;DHT22;6523;49.758;6.120;2022-12-18T01:32:08;-10.90;99.90
12911;DHT22;6523;49.758;6.120;2022-12-18T01:34:35;-11.10;99.90
12911;DHT22;6523;49.758;6.120;2022-12-18T01:37:02;-11.00;99.90
12911;DHT22;6523;49.758;6.120;2022-12-18T01:39:28;-10.90;99.90
12911;DHT22;6523;49.758;6.120;2022-12-18T01:41:54;-11.00;99.90
12911;DHT22;6523;49.758;6.120;2022-12-18T01:47:51;-11.10;99.90
12911;DHT22;6523;49.758;6.120;2022-12-18T01:50:32;-11.10;99.90
12911;DHT22;6523;49.758;6.120;2022-12-18T01:53:16;-11.10;99.90
12911;DHT22;6523;49.758;6.120;2022-12-18T01:55:54;-11.20;99.90
12911;DHT22;6523;49.758;6.120;2022-12-18T01:58:24;-11.10;99.90
12911;DHT22;6523;49.758;6.120;2022-12-18T02:00:54;-11.00;99.90
12911;DHT22;6523;49.758;6.120;2022-12-18T02:03:20;-11.00;99.90
12911;DHT22;6523;49.758;6.120;2022-12-18T02:11:36;-11.00;99.90
12911;DHT22;6523;49.758;6.120;2022-12-18T02:16:45;-10.90;99.90
12911;DHT22;6523;49.758;6.120;2022-12-18T02:22:12;-10.90;99.90
12911;DHT22;6523;49.758;6.120;2022-12-18T02:27:10;-10.80;99.90
12911;DHT22;6523;49.758;6.120;2022-12-18T02:32:11;-11.10;99.90
12911;DHT22;6523;49.758;6.120;2022-12-18T02:34:40;-11.10;99.90
12911;DHT22;6523;49.758;6.120;2022-12-18T02:37:09;-11.00;99.90
12911;DHT22;6523;49.758;6.120;2022-12-18T02:39:38;-11.00;99.90
12911;DHT22;6523;49.758;6.120;2022-12-18T02:42:04;-10.90;99.90
12911;DHT22;6523;49.758;6.120;2022-12-18T02:44:34;-11.00;99.90
12911;DHT22;6523;49.758;6.120;2022-12-18T02:47:00;-11.00;99.90
12911;DHT22;6523;49.758;6.120;2022-12-18T02:49:52;-11.00;99.90
12911;DHT22;6523;49.758;6.120;2022-12-18T02:55:20;-11.10;99.90
12911;DHT22;6523;49.758;6.120;2022-12-18T02:57:54;-11.20;99.90
12911;DHT22;6523;49.758;6.120;2022-12-18T03:00:48;-11.20;99.90
12911;DHT22;6523;49.758;6.120;2022-12-18T03:03:26;-11.30;99.90
12911;DHT22;6523;49.758;6.120;2022-12-18T03:05:59;-11.20;99.90
12911;DHT22;6523;49.758;6.120;2022-12-18T03:08:34;-11.20;99.90
12911;DHT22;6523;49.758;6.120;2022-12-18T03:11:04;-11.10;99.90
12911;DHT22;6523;49.758;6.120;2022-12-18T03:13:36;-11.10;99.90
12911;DHT22;6523;49.758;6.120;2022-12-18T03:16:03;-11.20;99.90
12911;DHT22;6523;49.758;6.120;2022-12-18T03:18:42;-11.20;99.90
12911;DHT22;6523;49.758;6.120;2022-12-18T03:21:13;-11.20;99.90
12911;DHT22;6523;49.758;6.120;2022-12-18T03:23:44;-11.10;99.90
12911;DHT22;6523;49.758;6.120;2022-12-18T03:26:14;-11.20;99.90
12911;DHT22;6523;49.758;6.120;2022-12-18T03:28:45;-11.30;99.90
12911;DHT22;6523;49.758;6.120;2022-12-18T03:31:13;-11.30;99.90
12911;DHT22;6523;49.758;6.120;2022-12-18T03:33:51;-11.30;99.90
12911;DHT22;6523;49.758;6.120;2022-12-18T03:36:17;-11.20;99.90
12911;DHT22;6523;49.758;6.120;2022-12-18T03:38:43;-11.10;99.90
12911;DHT22;6523;49.758;6.120;2022-12-18T03:41:33;-11.30;99.90
12911;DHT22;6523;49.758;6.120;2022-12-18T03:47:07;-11.20;99.90
12911;DHT22;6523;49.758;6.120;2022-12-18T03:49:54;-11.20;99.90
12911;DHT22;6523;49.758;6.120;2022-12-18T03:52:28;-11.20;99.90
12911;DHT22;6523;49.758;6.120;2022-12-18T03:54:56;-11.20;99.90
12911;DHT22;6523;49.758;6.120;2022-12-18T03:57:25;-11.30;99.90
12911;DHT22;6523;49.758;6.120;2022-12-18T03:59:57;-11.30;99.90
12911;DHT22;6523;49.758;6.120;2022-12-18T04:02:25;-11.30;99.90
12911;DHT22;6523;49.758;6.120;2022-12-18T04:04:56;-11.20;99.90
12911;DHT22;6523;49.758;6.120;2022-12-18T04:07:24;-11.30;99.90
12911;DHT22;6523;49.758;6.120;2022-12-18T04:09:53;-11.50;99.90
12911;DHT22;6523;49.758;6.120;2022-12-18T04:12:21;-11.60;99.90
12911;DHT22;6523;49.758;6.120;2022-12-18T04:14:46;-11.70;99.90
12911;DHT22;6523;49.758;6.120;2022-12-18T04:17:12;-11.50;99.90
12911;DHT22;6523;49.758;6.120;2022-12-18T04:19:37;-11.50;99.90
12911;DHT22;6523;49.758;6.120;2022-12-18T04:22:03;-11.60;99.90
12911;DHT22;6523;49.758;6.120;2022-12-18T04:24:28;-11.50;99.90
12911;DHT22;6523;49.758;6.120;2022-12-18T04:26:54;-11.50;99.90
12911;DHT22;6523;49.758;6.120;2022-12-18T04:29:19;-11.50;99.90
12911;DHT22;6523;49.758;6.120;2022-12-18T04:31:45;-11.50;99.90
12911;DHT22;6523;49.758;6.120;2022-12-18T04:34:10;-11.40;99.90
12911;DHT22;6523;49.758;6.120;2022-12-18T04:36:36;-11.70;99.90
12911;DHT22;6523;49.758;6.120;2022-12-18T04:39:02;-11.70;99.90
12911;DHT22;6523;49.758;6.120;2022-12-18T04:41:27;-11.90;99.90
12911;DHT22;6523;49.758;6.120;2022-12-18T04:43:53;-11.90;99.90
12911;DHT22;6523;49.758;6.120;2022-12-18T04:46:18;-11.80;99.90
12911;DHT22;6523;49.758;6.120;2022-12-18T04:48:46;-11.80;99.90
12911;DHT22;6523;49.758;6.120;2022-12-18T04:51:12;-11.80;99.90
12911;DHT22;6523;49.758;6.120;2022-12-18T04:53:38;-11.70;99.90
12911;DHT22;6523;49.758;6.120;2022-12-18T04:58:29;-11.60;99.90
12911;DHT22;6523;49.758;6.120;2022-12-18T05:00:55;-11.60;99.90
12911;DHT22;6523;49.758;6.120;2022-12-18T05:03:20;-11.60;99.90
12911;DHT22;6523;49.758;6.120;2022-12-18T05:05:49;-11.60;99.90
12911;DHT22;6523;49.758;6.120;2022-12-18T05:08:15;-11.70;99.90
12911;DHT22;6523;49.758;6.120;2022-12-18T05:10:41;-11.70;99.90
12911;DHT22;6523;49.758;6.120;2022-12-18T05:13:06;-11.60;99.90
12911;DHT22;6523;49.758;6.120;2022-12-18T05:15:33;-11.60;99.90
12911;DHT22;6523;49.758;6.120;2022-12-18T05:18:00;-11.70;99.90
12911;DHT22;6523;49.758;6.120;2022-12-18T05:20:26;-11.80;99.90
12911;DHT22;6523;49.758;6.120;2022-12-18T05:22:52;-11.90;99.90
12911;DHT22;6523;49.758;6.120;2022-12-18T05:25:18;-11.80;99.90
12911;DHT22;6523;49.758;6.120;2022-12-18T05:27:44;-11.80;99.90
12911;DHT22;6523;49.758;6.120;2022-12-18T05:30:11;-11.70;99.90
12911;DHT22;6523;49.758;6.120;2022-12-18T05:32:37;-11.60;99.90
12911;DHT22;6523;49.758;6.120;2022-12-18T05:35:03;-11.60;99.90
12911;DHT22;6523;49.758;6.120;2022-12-18T05:37:29;-11.60;99.90
12911;DHT22;6523;49.758;6.120;2022-12-18T05:39:55;-11.70;99.90
12911;DHT22;6523;49.758;6.120;2022-12-18T05:42:20;-11.70;99.90
12911;DHT22;6523;49.758;6.120;2022-12-18T05:44:46;-11.60;99.90
12911;DHT22;6523;49.758;6.120;2022-12-18T05:47:11;-11.70;99.90
12911;DHT22;6523;49.758;6.120;2022-12-18T05:49:37;-11.90;99.90
12911;DHT22;6523;49.758;6.120;2022-12-18T05:52:02;-11.70;99.90
12911;DHT22;6523;49.758;6.120;2022-12-18T05:54:28;-11.80;99.90
12911;DHT22;6523;49.758;6.120;2022-12-18T05:56:54;-11.70;99.90
12911;DHT22;6523;49.758;6.120;2022-12-18T05:59:20;-11.80;99.90
12911;DHT22;6523;49.758;6.120;2022-12-18T06:01:46;-11.80;99.90
12911;DHT22;6523;49.758;6.120;2022-12-18T06:04:11;-11.80;99.90
12911;DHT22;6523;49.758;6.120;2022-12-18T06:06:37;-11.70;99.90
12911;DHT22;6523;49.758;6.120;2022-12-18T06:09:03;-11.60;99.90
12911;DHT22;6523;49.758;6.120;2022-12-18T06:11:34;-11.60;99.90
12911;DHT22;6523;49.758;6.120;2022-12-18T06:14:00;-11.60;99.90
12911;DHT22;6523;49.758;6.120;2022-12-18T06:16:27;-11.60;99.90
12911;DHT22;6523;49.758;6.120;2022-12-18T06:18:55;-11.60;99.90
12911;DHT22;6523;49.758;6.120;2022-12-18T06:21:21;-11.80;99.90
12911;DHT22;6523;49.758;6.120;2022-12-18T06:23:46;-11.80;99.90
12911;DHT22;6523;49.758;6.120;2022-12-18T06:26:13;-11.70;99.90
12911;DHT22;6523;49.758;6.120;2022-12-18T06:28:39;-11.70;99.90
12911;DHT22;6523;49.758;6.120;2022-12-18T06:31:05;-11.70;99.90
12911;DHT22;6523;49.758;6.120;2022-12-18T06:33:31;-11.70;99.90
12911;DHT22;6523;49.758;6.120;2022-12-18T06:36:05;-11.80;99.90
12911;DHT22;6523;49.758;6.120;2022-12-18T06:38:33;-11.70;99.90
12911;DHT22;6523;49.758;6.120;2022-12-18T06:40:59;-11.70;99.90
12911;DHT22;6523;49.758;6.120;2022-12-18T06:43:25;-11.70;99.90
12911;DHT22;6523;49.758;6.120;2022-12-18T06:45:50;-11.70;99.90
12911;DHT22;6523;49.758;6.120;2022-12-18T06:48:20;-11.80;99.90
12911;DHT22;6523;49.758;6.120;2022-12-18T06:50:46;-11.60;99.90
12911;DHT22;6523;49.758;6.120;2022-12-18T06:53:12;-11.60;99.90
12911;DHT22;6523;49.758;6.120;2022-12-18T06:55:38;-11.70;99.90
12911;DHT22;6523;49.758;6.120;2022-12-18T06:58:03;-11.70;99.90
12911;DHT22;6523;49.758;6.120;2022-12-18T07:00:29;-11.70;99.90
12911;DHT22;6523;49.758;6.120;2022-12-18T07:02:54;-11.60;99.90
12911;DHT22;6523;49.758;6.120;2022-12-18T07:05:20;-11.60;99.90
12911;DHT22;6523;49.758;6.120;2022-12-18T07:07:45;-11.60;99.90
12911;DHT22;6523;49.758;6.120;2022-12-18T07:10:11;-11.70;99.90
12911;DHT22;6523;49.758;6.120;2022-12-18T07:12:37;-11.80;99.90
12911;DHT22;6523;49.758;6.120;2022-12-18T07:15:03;-11.80;99.90
12911;DHT22;6523;49.758;6.120;2022-12-18T07:17:28;-11.70;99.90
12911;DHT22;6523;49.758;6.120;2022-12-18T07:19:54;-11.80;99.90
12911;DHT22;6523;49.758;6.120;2022-12-18T07:22:20;-11.70;99.90
12911;DHT22;6523;49.758;6.120;2022-12-18T07:24:46;-11.70;99.90
12911;DHT22;6523;49.758;6.120;2022-12-18T07:27:11;-11.60;99.90
12911;DHT22;6523;49.758;6.120;2022-12-18T07:29:37;-11.50;99.90
12911;DHT22;6523;49.758;6.120;2022-12-18T07:32:03;-11.50;99.90
12911;DHT22;6523;49.758;6.120;2022-12-18T07:34:28;-11.60;99.90
12911;DHT22;6523;49.758;6.120;2022-12-18T07:36:54;-11.60;99.90
12911;DHT22;6523;49.758;6.120;2022-12-18T07:39:19;-11.60;99.90
12911;DHT22;6523;49.758;6.120;2022-12-18T07:41:45;-11.60;99.90
12911;DHT22;6523;49.758;6.120;2022-12-18T07:44:33;-11.70;99.90
12911;DHT22;6523;49.758;6.120;2022-12-18T07:46:59;-11.70;99.90
12911;DHT22;6523;49.758;6.120;2022-12-18T07:49:24;-11.60;99.90
12911;DHT22;6523;49.758;6.120;2022-12-18T07:51:50;-11.60;99.90
12911;DHT22;6523;49.758;6.120;2022-12-18T07:54:15;-11.50;99.90
12911;DHT22;6523;49.758;6.120;2022-12-18T07:56:41;-11.50;99.90
12911;DHT22;6523;49.758;6.120;2022-12-18T07:59:07;-11.50;99.90
12911;DHT22;6523;49.758;6.120;2022-12-18T08:01:33;-11.40;99.90
12911;DHT22;6523;49.758;6.120;2022-12-18T08:03:59;-11.30;99.90
12911;DHT22;6523;49.758;6.120;2022-12-18T08:06:24;-11.30;99.90
12911;DHT22;6523;49.758;6.120;2022-12-18T08:08:52;-11.20;99.90
12911;DHT22;6523;49.758;6.120;2022-12-18T08:11:18;-11.30;99.90
12911;DHT22;6523;49.758;6.120;2022-12-18T08:13:43;-11.20;99.90
12911;DHT22;6523;49.758;6.120;2022-12-18T08:16:09;-11.20;99.90
12911;DHT22;6523;49.758;6.120;2022-12-18T08:18:36;-11.20;99.90
12911;DHT22;6523;49.758;6.120;2022-12-18T08:21:14;-11.10;99.90
12911;DHT22;6523;49.758;6.120;2022-12-18T08:23:40;-11.10;99.90
12911;DHT22;6523;49.758;6.120;2022-12-18T08:26:07;-11.10;99.90
12911;DHT22;6523;49.758;6.120;2022-12-18T08:28:33;-11.10;99.90
12911;DHT22;6523;49.758;6.120;2022-12-18T08:30:59;-11.10;99.90
12911;DHT22;6523;49.758;6.120;2022-12-18T08:33:24;-11.10;99.90
12911;DHT22;6523;49.758;6.120;2022-12-18T08:35:51;-11.00;99.90
12911;DHT22;6523;49.758;6.120;2022-12-18T08:38:17;-10.90;99.90
12911;DHT22;6523;49.758;6.120;2022-12-18T08:40:42;-10.90;99.90
12911;DHT22;6523;49.758;6.120;2022-12-18T08:43:10;-10.90;99.90
12911;DHT22;6523;49.758;6.120;2022-12-18T08:45:54;-10.90;99.90
12911;DHT22;6523;49.758;6.120;2022-12-18T08:48:20;-10.90;99.90
12911;DHT22;6523;49.758;6.120;2022-12-18T08:50:57;-10.80;99.90
12911;DHT22;6523;49.758;6.120;2022-12-18T08:53:24;-10.80;99.90
12911;DHT22;6523;49.758;6.120;2022-12-18T08:55:50;-10.70;99.90
12911;DHT22;6523;49.758;6.120;2022-12-18T08:58:16;-10.60;99.90
12911;DHT22;6523;49.758;6.120;2022-12-18T09:00:41;-10.50;99.90
12911;DHT22;6523;49.758;6.120;2022-12-18T09:03:18;-10.50;99.90
12911;DHT22;6523;49.758;6.120;2022-12-18T09:05:45;-10.40;99.90
12911;DHT22;6523;49.758;6.120;2022-12-18T09:08:11;-10.30;99.90
12911;DHT22;6523;49.758;6.120;2022-12-18T09:10:46;-10.20;99.90
12911;DHT22;6523;49.758;6.120;2022-12-18T09:13:12;-10.00;99.90
12911;DHT22;6523;49.758;6.120;2022-12-18T09:15:42;-9.90;99.90
12911;DHT22;6523;49.758;6.120;2022-12-18T09:18:08;-9.80;99.90
12911;DHT22;6523;49.758;6.120;2022-12-18T09:20:35;-9.70;99.90
12911;DHT22;6523;49.758;6.120;2022-12-18T09:23:01;-9.60;99.90
12911;DHT22;6523;49.758;6.120;2022-12-18T09:25:28;-9.60;99.90
12911;DHT22;6523;49.758;6.120;2022-12-18T09:27:57;-9.60;99.90
12911;DHT22;6523;49.758;6.120;2022-12-18T09:30:22;-9.50;99.90
12911;DHT22;6523;49.758;6.120;2022-12-18T09:32:48;-9.40;99.90
12911;DHT22;6523;49.758;6.120;2022-12-18T09:35:13;-9.20;99.90
12911;DHT22;6523;49.758;6.120;2022-12-18T09:37:39;-9.10;99.90
12911;DHT22;6523;49.758;6.120;2022-12-18T09:40:16;-9.10;99.90
12911;DHT22;6523;49.758;6.120;2022-12-18T09:42:47;-9.00;99.90
12911;DHT22;6523;49.758;6.120;2022-12-18T09:45:15;-9.00;99.90
12911;DHT22;6523;49.758;6.120;2022-12-18T09:47:43;-8.90;99.90
12911;DHT22;6523;49.758;6.120;2022-12-18T09:50:29;-8.70;99.90
12911;DHT22;6523;49.758;6.120;2022-12-18T09:52:59;-8.70;99.90
12911;DHT22;6523;49.758;6.120;2022-12-18T09:55:34;-8.50;99.90
12911;DHT22;6523;49.758;6.120;2022-12-18T09:58:31;-8.30;99.90
12911;DHT22;6523;49.758;6.120;2022-12-18T10:00:57;-8.00;99.90
12911;DHT22;6523;49.758;6.120;2022-12-18T10:03:23;-8.20;99.90
12911;DHT22;6523;49.758;6.120;2022-12-18T10:06:05;-8.00;99.90
12911;DHT22;6523;49.758;6.120;2022-12-18T10:11:24;-7.60;99.90
12911;DHT22;6523;49.758;6.120;2022-12-18T10:13:57;-7.40;99.90
12911;DHT22;6523;49.758;6.120;2022-12-18T10:16:31;-7.30;99.90
12911;DHT22;6523;49.758;6.120;2022-12-18T10:22:07;-7.20;99.90
12911;DHT22;6523;49.758;6.120;2022-12-18T10:24:36;-7.00;99.90
12911;DHT22;6523;49.758;6.120;2022-12-18T10:27:24;-7.10;99.90
12911;DHT22;6523;49.758;6.120;2022-12-18T10:29:51;-6.90;99.90
12911;DHT22;6523;49.758;6.120;2022-12-18T10:32:22;-6.90;99.90
12911;DHT22;6523;49.758;6.120;2022-12-18T10:34:49;-6.50;99.90
12911;DHT22;6523;49.758;6.120;2022-12-18T10:37:18;-6.40;99.90
12911;DHT22;6523;49.758;6.120;2022-12-18T10:39:45;-6.50;99.90
12911;DHT22;6523;49.758;6.120;2022-12-18T10:42:17;-6.20;99.90
12911;DHT22;6523;49.758;6.120;2022-12-18T10:44:43;-6.00;99.90
12911;DHT22;6523;49.758;6.120;2022-12-18T10:47:14;-5.90;99.90
12911;DHT22;6523;49.758;6.120;2022-12-18T10:49:47;-6.00;99.90
12911;DHT22;6523;49.758;6.120;2022-12-18T10:52:22;-5.70;99.90
12911;DHT22;6523;49.758;6.120;2022-12-18T10:54:59;-5.60;99.90
12911;DHT22;6523;49.758;6.120;2022-12-18T10:59:59;-5.20;99.90
12911;DHT22;6523;49.758;6.120;2022-12-18T11:02:38;-5.20;99.90
12911;DHT22;6523;49.758;6.120;2022-12-18T11:05:24;-5.00;99.90
12911;DHT22;6523;49.758;6.120;2022-12-18T11:07:51;-4.90;99.90
12911;DHT22;6523;49.758;6.120;2022-12-18T11:10:20;-4.70;99.90
12911;DHT22;6523;49.758;6.120;2022-12-18T11:12:47;-4.60;99.90
12911;DHT22;6523;49.758;6.120;2022-12-18T11:15:42;-4.50;99.90
12911;DHT22;6523;49.758;6.120;2022-12-18T11:18:29;-4.40;99.90
12911;DHT22;6523;49.758;6.120;2022-12-18T11:21:05;-4.20;99.90
12911;DHT22;6523;49.758;6.120;2022-12-18T11:23:31;-4.10;99.90
12911;DHT22;6523;49.758;6.120;2022-12-18T11:25:59;-4.00;99.90
12911;DHT22;6523;49.758;6.120;2022-12-18T11:28:36;-3.70;99.90
12911;DHT22;6523;49.758;6.120;2022-12-18T11:34:26;-3.80;99.90
12911;DHT22;6523;49.758;6.120;2022-12-18T11:36:46;-3.70;99.90
12911;DHT22;6523;49.758;6.120;2022-12-18T11:44:50;-3.50;99.90
12911;DHT22;6523;49.758;6.120;2022-12-18T11:47:32;-3.50;99.90
12911;DHT22;6523;49.758;6.120;2022-12-18T11:50:01;-3.50;99.90
12911;DHT22;6523;49.758;6.120;2022-12-18T11:52:35;-3.50;99.90
12911;DHT22;6523;49.758;6.120;2022-12-18T11:58:12;-3.40;99.90
12911;DHT22;6523;49.758;6.120;2022-12-18T12:00:51;-3.30;99.90
12911;DHT22;6523;49.758;6.120;2022-12-18T12:18:05;-2.80;99.90
12911;DHT22;6523;49.758;6.120;2022-12-18T12:23:39;-2.70;99.90
12911;DHT22;6523;49.758;6.120;2022-12-18T12:29:12;-2.70;99.90
12911;DHT22;6523;49.758;6.120;2022-12-18T12:32:18;-2.70;99.90
12911;DHT22;6523;49.758;6.120;2022-12-18T12:38:26;-2.50;99.90
12911;DHT22;6523;49.758;6.120;2022-12-18T12:41:07;-2.40;99.90
12911;DHT22;6523;49.758;6.120;2022-12-18T12:43:57;-2.60;99.90
12911;DHT22;6523;49.758;6.120;2022-12-18T12:46:25;-2.40;99.90
12911;DHT22;6523;49.758;6.120;2022-12-18T12:49:01;-2.50;99.90
12911;DHT22;6523;49.758;6.120;2022-12-18T12:51:42;-2.50;99.90
12911;DHT22;6523;49.758;6.120;2022-12-18T12:54:18;-2.30;99.90
12911;DHT22;6523;49.758;6.120;2022-12-18T12:56:57;-2.30;99.90
12911;DHT22;6523;49.758;6.120;2022-12-18T12:59:45;-2.50;99.90
12911;DHT22;6523;49.758;6.120;2022-12-18T13:02:47;-2.50;99.90
12911;DHT22;6523;49.758;6.120;2022-12-18T13:08:06;-2.70;99.90
12911;DHT22;6523;49.758;6.120;2022-12-18T13:10:38;-2.80;99.90
12911;DHT22;6523;49.758;6.120;2022-12-18T13:13:09;-2.70;99.90
12911;DHT22;6523;49.758;6.120;2022-12-18T13:15:45;-2.80;99.90
12911;DHT22;6523;49.758;6.120;2022-12-18T13:18:15;-2.80;99.90
12911;DHT22;6523;49.758;6.120;2022-12-18T13:30:53;-2.90;99.90
12911;DHT22;6523;49.758;6.120;2022-12-18T13:36:04;-2.90;99.90
12911;DHT22;6523;49.758;6.120;2022-12-18T13:38:35;-2.90;99.90
12911;DHT22;6523;49.758;6.120;2022-12-18T13:46:47;-3.10;99.90
12911;DHT22;6523;49.758;6.120;2022-12-18T13:51:44;-3.20;99.90
12911;DHT22;6523;49.758;6.120;2022-12-18T13:54:33;-3.20;99.90
12911;DHT22;6523;49.758;6.120;2022-12-18T13:57:00;-3.30;99.90
12911;DHT22;6523;49.758;6.120;2022-12-18T13:59:34;-3.30;99.90
12911;DHT22;6523;49.758;6.120;2022-12-18T14:02:07;-3.30;99.90
12911;DHT22;6523;49.758;6.120;2022-12-18T14:04:38;-3.30;99.90
12911;DHT22;6523;49.758;6.120;2022-12-18T14:07:06;-3.40;99.90
12911;DHT22;6523;49.758;6.120;2022-12-18T14:09:52;-3.40;99.90
12911;DHT22;6523;49.758;6.120;2022-12-18T14:12:24;-3.40;99.90
12911;DHT22;6523;49.758;6.120;2022-12-18T14:15:34;-3.40;99.90
12911;DHT22;6523;49.758;6.120;2022-12-18T14:20:49;-3.40;99.90
12911;DHT22;6523;49.758;6.120;2022-12-18T14:23:44;-3.40;99.90
12911;DHT22;6523;49.758;6.120;2022-12-18T14:26:30;-3.40;99.90
12911;DHT22;6523;49.758;6.120;2022-12-18T14:28:58;-3.40;99.90
12911;DHT22;6523;49.758;6.120;2022-12-18T14:31:28;-3.40;99.90
12911;DHT22;6523;49.758;6.120;2022-12-18T14:33:54;-3.30;99.90
12911;DHT22;6523;49.758;6.120;2022-12-18T14:36:25;-3.40;99.90
12911;DHT22;6523;49.758;6.120;2022-12-18T14:38:58;-3.40;99.90
12911;DHT22;6523;49.758;6.120;2022-12-18T14:41:25;-3.50;99.90
12911;DHT22;6523;49.758;6.120;2022-12-18T14:43:52;-3.50;99.90
12911;DHT22;6523;49.758;6.120;2022-12-18T14:46:32;-3.50;99.90
12911;DHT22;6523;49.758;6.120;2022-12-18T14:49:27;-3.50;99.90
12911;DHT22;6523;49.758;6.120;2022-12-18T14:51:59;-3.50;99.90
12911;DHT22;6523;49.758;6.120;2022-12-18T14:54:27;-3.50;99.90
12911;DHT22;6523;49.758;6.120;2022-12-18T14:57:06;-3.60;99.90
12911;DHT22;6523;49.758;6.120;2022-12-18T14:59:38;-3.60;99.90
12911;DHT22;6523;49.758;6.120;2022-12-18T15:02:15;-3.70;99.90
12911;DHT22;6523;49.758;6.120;2022-12-18T15:04:44;-3.70;99.90
12911;DHT22;6523;49.758;6.120;2022-12-18T15:09:44;-3.80;99.90
12911;DHT22;6523;49.758;6.120;2022-12-18T15:12:26;-3.80;99.90
12911;DHT22;6523;49.758;6.120;2022-12-18T15:14:53;-3.80;99.90
12911;DHT22;6523;49.758;6.120;2022-12-18T15:17:21;-3.80;99.90
12911;DHT22;6523;49.758;6.120;2022-12-18T15:19:48;-3.80;99.90
12911;DHT22;6523;49.758;6.120;2022-12-18T15:22:28;-3.80;99.90
12911;DHT22;6523;49.758;6.120;2022-12-18T15:24:56;-3.80;99.90
12911;DHT22;6523;49.758;6.120;2022-12-18T15:27:31;-3.80;99.90
12911;DHT22;6523;49.758;6.120;2022-12-18T15:32:33;-3.90;99.90
12911;DHT22;6523;49.758;6.120;2022-12-18T15:35:23;-3.90;99.90
12911;DHT22;6523;49.758;6.120;2022-12-18T15:37:51;-3.90;99.90
12911;DHT22;6523;49.758;6.120;2022-12-18T15:40:22;-3.90;99.90
12911;DHT22;6523;49.758;6.120;2022-12-18T15:42:48;-3.90;99.90
12911;DHT22;6523;49.758;6.120;2022-12-18T15:45:35;-3.90;99.90
12911;DHT22;6523;49.758;6.120;2022-12-18T15:48:00;-3.90;99.90
12911;DHT22;6523;49.758;6.120;2022-12-18T15:50:26;-3.90;99.90
12911;DHT22;6523;49.758;6.120;2022-12-18T15:52:53;-3.90;99.90
12911;DHT22;6523;49.758;6.120;2022-12-18T15:55:22;-3.90;99.90
12911;DHT22;6523;49.758;6.120;2022-12-18T15:58:08;-4.00;99.90
12911;DHT22;6523;49.758;6.120;2022-12-18T16:00:35;-4.00;99.90
12911;DHT22;6523;49.758;6.120;2022-12-18T16:03:01;-4.00;99.90
12911;DHT22;6523;49.758;6.120;2022-12-18T16:05:27;-4.00;99.90
12911;DHT22;6523;49.758;6.120;2022-12-18T16:07:53;-4.00;99.90
12911;DHT22;6523;49.758;6.120;2022-12-18T16:10:19;-3.90;99.90
12911;DHT22;6523;49.758;6.120;2022-12-18T16:12:45;-4.00;99.90
12911;DHT22;6523;49.758;6.120;2022-12-18T16:15:12;-3.90;99.90
12911;DHT22;6523;49.758;6.120;2022-12-18T16:17:39;-4.00;99.90
12911;DHT22;6523;49.758;6.120;2022-12-18T16:20:08;-3.90;99.90
12911;DHT22;6523;49.758;6.120;2022-12-18T16:22:36;-3.90;99.90
12911;DHT22;6523;49.758;6.120;2022-12-18T16:25:02;-3.90;99.90
12911;DHT22;6523;49.758;6.120;2022-12-18T16:27:30;-3.90;99.90
12911;DHT22;6523;49.758;6.120;2022-12-18T16:29:55;-3.90;99.90
12911;DHT22;6523;49.758;6.120;2022-12-18T16:32:22;-3.90;99.90
12911;DHT22;6523;49.758;6.120;2022-12-18T16:34:47;-3.90;99.90
12911;DHT22;6523;49.758;6.120;2022-12-18T16:37:15;-4.00;99.90
12911;DHT22;6523;49.758;6.120;2022-12-18T16:39:41;-4.00;99.90
12911;DHT22;6523;49.758;6.120;2022-12-18T16:42:11;-4.00;99.90
12911;DHT22;6523;49.758;6.120;2022-12-18T16:44:39;-4.00;99.90
12911;DHT22;6523;49.758;6.120;2022-12-18T16:47:05;-4.00;99.90
12911;DHT22;6523;49.758;6.120;2022-12-18T16:49:31;-3.90;99.90
12911;DHT22;6523;49.758;6.120;2022-12-18T16:51:56;-3.90;99.90
12911;DHT22;6523;49.758;6.120;2022-12-18T16:54:22;-3.90;99.90
12911;DHT22;6523;49.758;6.120;2022-12-18T16:56:50;-3.90;99.90
12911;DHT22;6523;49.758;6.120;2022-12-18T16:59:15;-3.90;99.90
12911;DHT22;6523;49.758;6.120;2022-12-18T17:01:41;-3.80;99.90
12911;DHT22;6523;49.758;6.120;2022-12-18T17:04:07;-3.80;99.90
12911;DHT22;6523;49.758;6.120;2022-12-18T17:06:35;-3.80;99.90
12911;DHT22;6523;49.758;6.120;2022-12-18T17:09:06;-3.80;99.90
12911;DHT22;6523;49.758;6.120;2022-12-18T17:11:33;-3.80;99.90
12911;DHT22;6523;49.758;6.120;2022-12-18T17:13:59;-3.70;99.90
12911;DHT22;6523;49.758;6.120;2022-12-18T17:16:30;-3.70;99.90
12911;DHT22;6523;49.758;6.120;2022-12-18T17:18:55;-3.70;99.90
12911;DHT22;6523;49.758;6.120;2022-12-18T17:21:21;-3.70;99.90
12911;DHT22;6523;49.758;6.120;2022-12-18T17:23:46;-3.70;99.90
12911;DHT22;6523;49.758;6.120;2022-12-18T17:26:12;-3.70;99.90
12911;DHT22;6523;49.758;6.120;2022-12-18T17:28:39;-3.70;99.90
12911;DHT22;6523;49.758;6.120;2022-12-18T17:31:14;-3.70;99.90
12911;DHT22;6523;49.758;6.120;2022-12-18T17:33:41;-3.70;99.90
12911;DHT22;6523;49.758;6.120;2022-12-18T17:36:08;-3.60;99.90
12911;DHT22;6523;49.758;6.120;2022-12-18T17:38:35;-3.60;99.90